Time;durP1;ratioP1;P1;durP2;ratioP2;P2;SDS_P1;SDS_P2;PMS_P1;PMS_P2;Temp;Humidity;BMP_temperature;BMP_pressure;BME280_temperature;BME280_humidity;BME280_pressure;Samples;Min_cycle;Max_cycle;Signal;HPM_P1;HPM_P2
2022/07/01 04:32:46;;;;;;;21.45;13.90;;;;;;;21.61;61.58;101153.72;5065461;28;20393;-92
2022/07/01 04:35:14;;;;;;;24.08;15.02;;;;;;;21.76;61.96;101162.94;5041474;28;20037;-91
2022/07/01 04:37:40;;;;;;;22.02;14.13;;;;;;;21.89;61.60;101154.78;5014591;28;20032;-86
2022/07/01 04:40:06;;;;;;;30.77;14.70;;;;;;;22.00;60.95;101144.13;5046919;28;20025;-85
2022/07/01 04:42:32;;;;;;;21.23;14.40;;;;;;;22.32;60.62;101161.56;5029969;28;20032;-83
2022/07/01 04:44:57;;;;;;;17.55;13.75;;;;;;;22.56;60.24;101167.22;5046908;28;20387;-95
2022/07/01 04:47:23;;;;;;;27.05;15.05;;;;;;;22.85;59.66;101166.41;5018086;28;20111;-92
2022/07/01 04:49:49;;;;;;;19.75;14.88;;;;;;;22.85;58.78;101145.31;5049665;28;20091;-84
2022/07/01 04:52:14;;;;;;;22.33;15.38;;;;;;;23.00;58.64;101170.25;5045689;28;20025;-88
2022/07/01 04:54:41;;;;;;;27.65;17.25;;;;;;;23.12;58.30;101166.50;5042648;28;20025;-94
2022/07/01 04:57:06;;;;;;;23.33;15.13;;;;;;;23.12;58.78;101168.31;5049571;28;20140;-88
2022/07/01 04:59:32;;;;;;;19.63;15.00;;;;;;;23.16;58.43;101169.66;5040790;28;20136;-90
2022/07/01 05:01:58;;;;;;;21.17;14.82;;;;;;;23.36;58.23;101165.97;5039748;28;20068;-91
2022/07/01 05:04:26;;;;;;;22.60;14.60;;;;;;;23.53;57.80;101158.28;5038759;28;20106;-90
2022/07/01 05:06:51;;;;;;;24.92;15.32;;;;;;;23.61;57.57;101159.25;5039056;28;20029;-91
2022/07/01 05:09:17;;;;;;;24.33;16.10;;;;;;;23.68;57.60;101164.75;5054076;28;20343;-88
2022/07/01 05:11:43;;;;;;;22.60;15.40;;;;;;;23.78;57.35;101165.53;5068448;28;20081;-91
2022/07/01 05:14:08;;;;;;;30.20;15.77;;;;;;;23.72;57.39;101147.66;5051433;28;20037;-85
2022/07/01 05:16:34;;;;;;;23.52;16.25;;;;;;;23.93;57.46;101157.97;5049905;28;20033;-85
2022/07/01 05:21:56;;;;;;;23.90;16.48;;;;;;;24.49;56.75;101162.19;5039475;28;20517;-85
2022/07/01 05:24:23;;;;;;;27.40;19.23;;;;;;;24.39;56.11;101154.31;5049237;28;20029;-86
2022/07/01 05:26:49;;;;;;;92.75;19.77;;;;;;;24.63;55.19;101166.91;5032650;28;20119;-85
2022/07/01 05:29:15;;;;;;;62.20;19.20;;;;;;;24.64;55.29;101163.28;5032938;28;20507;-87
2022/07/01 05:31:41;;;;;;;48.40;18.52;;;;;;;24.76;55.23;101174.44;5055861;28;20060;-88
2022/07/01 05:34:06;;;;;;;39.97;18.13;;;;;;;24.82;54.66;101177.31;5039086;28;20082;-90
2022/07/01 05:36:32;;;;;;;29.55;18.10;;;;;;;24.95;54.06;101176.91;5059492;28;20422;-92
2022/07/01 05:38:58;;;;;;;24.98;18.08;;;;;;;25.01;54.17;101183.41;5033555;28;20037;-90
2022/07/01 05:41:24;;;;;;;26.38;17.70;;;;;;;25.08;54.73;101184.47;5035051;28;20110;-90
2022/07/01 05:43:49;;;;;;;27.33;18.13;;;;;;;25.18;53.45;101179.91;5020531;28;20966;-88
2022/07/01 05:46:15;;;;;;;32.05;20.45;;;;;;;25.30;53.92;101175.16;5022451;28;20033;-83
2022/07/01 05:48:40;;;;;;;24.85;17.38;;;;;;;25.41;53.14;101167.78;5039783;28;20402;-86
2022/07/01 05:51:06;;;;;;;30.75;18.40;;;;;;;25.59;52.80;101169.50;5053717;28;20246;-85
2022/07/01 05:53:31;;;;;;;28.05;17.85;;;;;;;25.59;53.38;101165.03;5026845;28;20120;-88
2022/07/01 05:55:57;;;;;;;29.48;17.92;;;;;;;25.49;52.13;101169.63;5045091;28;20025;-93
2022/07/01 05:58:22;;;;;;;30.92;18.63;;;;;;;25.60;53.33;101169.34;5023371;28;20052;-85
2022/07/01 06:00:48;;;;;;;29.25;18.02;;;;;;;25.72;52.50;101165.44;5040370;28;20052;-86
2022/07/01 06:03:14;;;;;;;30.05;17.42;;;;;;;25.64;52.05;101151.31;5039121;28;20037;-89
2022/07/01 06:05:40;;;;;;;25.40;17.80;;;;;;;25.80;51.57;101182.38;5037174;28;20035;-87
2022/07/01 06:08:06;;;;;;;28.35;18.45;;;;;;;25.75;52.00;101166.94;5019243;28;20033;-92
2022/07/01 06:10:32;;;;;;;25.45;17.48;;;;;;;25.95;51.95;101172.78;5037847;28;20036;-85
2022/07/01 06:12:57;;;;;;;25.30;17.42;;;;;;;26.02;51.23;101153.44;5023054;28;20041;-85
2022/07/01 06:15:23;;;;;;;27.58;18.13;;;;;;;26.11;49.81;101183.44;5036641;28;20030;-87
2022/07/01 06:17:49;;;;;;;25.85;17.48;;;;;;;26.00;51.00;101184.59;5036146;28;20099;-89
2022/07/01 06:20:15;;;;;;;29.85;18.60;;;;;;;25.84;50.99;101168.63;5037393;28;20029;-85
2022/07/01 06:22:40;;;;;;;29.48;17.10;;;;;;;26.14;51.39;101174.31;5026326;28;20603;-87
2022/07/01 06:25:07;;;;;;;32.22;17.73;;;;;;;26.39;50.61;101173.41;5023255;28;20033;-88
2022/07/01 06:27:38;;;;;;;28.50;17.10;;;;;;;26.44;50.31;101179.03;5027465;28;20029;-87
2022/07/01 06:30:04;;;;;;;29.02;18.15;;;;;;;26.55;49.86;101178.75;5038453;28;20086;-86
2022/07/01 06:32:30;;;;;;;31.90;18.73;;;;;;;26.74;49.61;101182.84;5040360;28;20049;-84
2022/07/01 06:34:55;;;;;;;36.20;17.92;;;;;;;26.78;50.20;101183.38;5046174;28;20036;-89
2022/07/01 06:37:21;;;;;;;33.45;18.08;;;;;;;26.98;49.06;101195.28;5046496;28;20095;-87
2022/07/01 06:39:47;;;;;;;29.92;18.15;;;;;;;26.83;49.06;101197.78;5041941;28;20021;-89
2022/07/01 06:42:13;;;;;;;35.45;18.65;;;;;;;26.97;49.32;101185.66;5043973;28;20028;-87
2022/07/01 06:44:38;;;;;;;28.35;17.73;;;;;;;27.06;49.26;101182.03;5022924;28;20040;-87
2022/07/01 06:47:04;;;;;;;28.80;19.00;;;;;;;27.16;49.09;101187.16;5036632;28;20479;-92
2022/07/01 06:49:29;;;;;;;38.33;19.00;;;;;;;27.04;49.39;101184.03;5018071;28;20068;-90
2022/07/01 06:51:55;;;;;;;53.38;35.15;;;;;;;27.06;49.97;101171.41;5038100;28;20041;-90
2022/07/01 06:54:21;;;;;;;28.52;19.58;;;;;;;27.17;49.15;101190.66;5039897;28;20033;-88
2022/07/01 06:56:46;;;;;;;35.92;19.75;;;;;;;27.30;48.72;101182.97;5037776;28;20067;-86
2022/07/01 06:59:12;;;;;;;33.97;19.40;;;;;;;27.45;48.67;101181.25;5021743;28;20064;-92
2022/07/01 07:01:38;;;;;;;27.25;19.30;;;;;;;27.52;48.14;101179.56;5018742;28;20482;-87
2022/07/01 07:04:03;;;;;;;33.95;19.08;;;;;;;27.46;48.07;101176.78;5037209;28;20221;-84
2022/07/01 07:06:29;;;;;;;28.70;18.40;;;;;;;27.61;48.12;101175.88;5037313;28;20022;-88
2022/07/01 07:08:54;;;;;;;26.00;19.92;;;;;;;27.66;47.99;101183.38;5035421;28;20044;-87
2022/07/01 07:11:20;;;;;;;31.92;19.50;;;;;;;27.63;47.77;101179.22;5035677;28;20060;-88
2022/07/01 07:13:45;;;;;;;34.35;20.85;;;;;;;27.86;47.39;101178.47;5017304;28;20477;-86
2022/07/01 07:16:11;;;;;;;32.58;20.58;;;;;;;27.71;47.75;101173.84;5019426;28;20036;-87
2022/07/01 07:18:36;;;;;;;32.17;20.13;;;;;;;27.87;47.87;101172.97;5017814;28;20041;-86
2022/07/01 07:21:03;;;;;;;28.70;19.58;;;;;;;27.93;47.38;101161.63;5036119;28;20083;-88
2022/07/01 07:23:28;;;;;;;29.67;20.08;;;;;;;27.92;46.81;101157.28;5023025;28;20516;-87
2022/07/01 07:25:54;;;;;;;36.17;20.02;;;;;;;28.20;46.90;101165.59;5021067;28;20033;-87
2022/07/01 07:28:20;;;;;;;32.95;21.05;;;;;;;28.35;46.46;101168.34;5033165;28;20116;-84
2022/07/01 07:30:45;;;;;;;30.88;20.83;;;;;;;28.53;46.09;101178.69;5036189;28;20060;-85
2022/07/01 07:33:11;;;;;;;32.00;20.90;;;;;;;28.49;45.88;101153.44;5019434;28;20036;-85
2022/07/01 07:35:37;;;;;;;29.35;20.10;;;;;;;28.65;45.71;101163.94;5038772;28;20505;-85
2022/07/01 07:38:02;;;;;;;38.40;21.35;;;;;;;28.66;45.85;101156.78;5019244;28;20083;-85
2022/07/01 07:40:28;;;;;;;33.53;21.40;;;;;;;28.89;45.47;101170.06;5008169;28;20038;-93
2022/07/01 07:42:53;;;;;;;37.03;23.08;;;;;;;29.09;45.39;101171.19;5033531;28;20040;-88
2022/07/01 07:45:19;;;;;;;30.88;21.08;;;;;;;29.24;45.24;101157.91;5019607;28;20043;-86
2022/07/01 07:47:48;;;;;;;31.23;21.48;;;;;;;29.37;45.06;101171.38;5031586;28;20410;-84
2022/07/01 07:50:13;;;;;;;137.15;69.47;;;;;;;29.52;44.71;101163.41;5036345;28;20437;-84
2022/07/01 07:52:39;;;;;;;38.78;21.95;;;;;;;29.61;44.28;101170.31;5018891;28;20467;-84
2022/07/01 07:55:06;;;;;;;34.53;21.05;;;;;;;29.60;44.20;101164.16;5031493;28;20021;-87
2022/07/01 07:57:31;;;;;;;36.50;20.65;;;;;;;29.75;44.07;101160.63;5035478;28;20465;-85
2022/07/01 07:59:57;;;;;;;37.47;23.27;;;;;;;29.78;43.51;101155.72;5034201;28;20020;-83
2022/07/01 08:02:23;;;;;;;36.05;25.08;;;;;;;29.92;44.45;101165.53;5017107;28;20075;-84
2022/07/01 08:04:48;;;;;;;36.50;21.80;;;;;;;29.82;43.41;101157.00;5034649;28;20024;-91
2022/07/01 08:07:14;;;;;;;29.13;20.65;;;;;;;29.73;43.75;101163.47;5038171;28;20040;-85
2022/07/01 08:09:41;;;;;;;37.13;23.15;;;;;;;29.81;43.72;101144.69;5035832;28;20034;-88
2022/07/01 08:12:07;;;;;;;33.00;24.17;;;;;;;30.13;44.51;101151.41;5019040;28;20121;-86
2022/07/01 08:14:33;;;;;;;29.13;21.23;;;;;;;30.41;43.18;101154.16;5024743;28;20116;-89
2022/07/01 08:16:58;;;;;;;40.92;23.20;;;;;;;30.42;42.70;101141.63;5020161;28;20021;-86
2022/07/01 08:19:24;;;;;;;27.05;21.45;;;;;;;30.63;43.01;101154.94;5017766;28;20068;-89
2022/07/01 08:21:49;;;;;;;31.63;22.67;;;;;;;30.69;41.88;101158.72;5034362;28;20037;-86
2022/07/01 08:24:15;;;;;;;31.55;21.25;;;;;;;30.83;42.17;101153.25;5050950;28;20048;-85
2022/07/01 08:26:40;;;;;;;35.25;21.23;;;;;;;31.08;41.75;101160.84;5034640;28;20347;-85
2022/07/01 08:29:06;;;;;;;25.48;21.05;;;;;;;31.15;41.05;101145.63;5032293;28;20029;-87
2022/07/01 08:31:31;;;;;;;28.30;21.30;;;;;;;31.43;40.02;101150.94;5032083;28;20049;-86
2022/07/01 08:33:57;;;;;;;29.67;21.67;;;;;;;31.43;40.06;101161.66;5035890;28;20434;-85
2022/07/01 08:36:23;;;;;;;31.38;21.27;;;;;;;31.45;40.32;101146.22;5019866;28;20037;-87
2022/07/01 08:38:49;;;;;;;30.55;22.48;;;;;;;31.45;40.44;101132.03;5019923;28;20029;-87
2022/07/01 08:41:15;;;;;;;36.17;21.02;;;;;;;31.63;40.35;101137.66;5033052;28;20136;-84
2022/07/01 08:43:40;;;;;;;27.77;21.77;;;;;;;31.74;39.83;101142.41;5036807;28;20150;-86
2022/07/01 08:46:06;;;;;;;34.20;21.98;;;;;;;31.71;39.46;101126.78;5006320;28;20575;-86
2022/07/01 08:48:31;;;;;;;27.30;21.08;;;;;;;31.80;39.49;101130.13;5019611;28;20021;-85
2022/07/01 08:50:57;;;;;;;31.75;20.92;;;;;;;31.99;38.55;101128.53;5035161;28;20486;-88
2022/07/01 08:53:22;;;;;;;31.60;21.13;;;;;;;31.98;39.93;101138.41;5022815;28;20494;-87
2022/07/01 08:58:32;;;;;;;26.50;20.90;;;;;;;32.25;38.40;101121.34;5026503;28;20142;-88
2022/07/01 09:01:17;;;;;;;35.60;22.25;;;;;;;32.42;38.22;101134.34;5036678;28;20112;-87
2022/07/01 09:03:45;;;;;;;30.50;21.63;;;;;;;32.40;37.01;101123.84;5048758;28;20029;-85
2022/07/01 09:06:15;;;;;;;28.95;20.60;;;;;;;32.03;37.59;101140.47;5035992;28;20098;-86
2022/07/01 09:08:42;;;;;;;25.02;19.60;;;;;;;32.19;37.90;101135.53;5013793;28;20036;-94
2022/07/01 09:11:12;;;;;;;31.20;20.52;;;;;;;32.47;36.50;101131.88;5011128;28;20379;-90
2022/07/01 09:13:37;;;;;;;32.60;20.40;;;;;;;32.46;37.15;101135.59;5010886;28;20037;-91
2022/07/01 09:16:11;;;;;;;26.45;20.60;;;;;;;32.36;37.49;101129.84;5024253;28;20086;-88
2022/07/01 09:18:36;;;;;;;29.73;20.23;;;;;;;32.65;35.26;101128.56;5023580;28;20045;-88
2022/07/01 09:21:02;;;;;;;30.13;19.60;;;;;;;32.40;35.81;101120.34;5041229;28;20055;-89
2022/07/01 09:23:28;;;;;;;34.90;19.02;;;;;;;32.74;35.48;101129.97;5051673;28;20517;-92
2022/07/01 09:25:53;;;;;;;29.40;18.38;;;;;;;32.98;35.16;101129.34;5014948;28;20021;-88
2022/07/01 09:28:23;;;;;;;30.48;19.15;;;;;;;33.15;35.25;101132.41;5032332;28;20032;-85
2022/07/01 09:30:53;;;;;;;29.10;19.42;;;;;;;33.41;34.99;101130.69;5032977;28;20563;-84
2022/07/01 09:33:23;;;;;;;29.58;20.42;;;;;;;33.63;35.10;101124.00;5030603;28;20056;-85
2022/07/01 09:35:49;;;;;;;35.65;21.13;;;;;;;33.91;34.86;101135.19;5030677;28;20061;-87
2022/07/01 09:38:15;;;;;;;26.13;19.70;;;;;;;33.91;33.42;101123.63;5046610;28;20163;-85
2022/07/01 09:40:54;;;;;;;28.20;17.13;;;;;;;34.06;31.76;101132.19;5030118;28;20024;-88
2022/07/01 09:43:24;;;;;;;29.83;19.55;;;;;;;34.00;32.58;101129.56;5051713;28;20653;-91
2022/07/01 09:46:02;;;;;;;27.10;18.98;;;;;;;34.18;32.55;101130.44;5049888;28;20116;-89
2022/07/01 09:48:48;;;;;;;24.33;19.38;;;;;;;34.27;33.50;101128.31;5053020;28;20021;-84
2022/07/01 09:51:15;;;;;;;28.63;19.90;;;;;;;34.26;32.69;101099.00;5051839;28;20045;-86
2022/07/01 09:53:41;;;;;;;26.63;19.83;;;;;;;34.58;32.48;101114.00;5049811;28;20462;-85
2022/07/01 09:56:06;;;;;;;26.13;19.38;;;;;;;34.53;32.11;101111.19;5041990;28;20026;-84
2022/07/01 09:58:32;;;;;;;26.10;20.38;;;;;;;34.60;32.14;101116.47;5044030;28;20036;-85
2022/07/01 10:00:58;;;;;;;33.13;19.25;;;;;;;34.78;31.21;101108.44;5048044;28;20040;-87
2022/07/01 10:03:23;;;;;;;30.02;20.23;;;;;;;35.00;31.03;101100.78;5014077;28;20030;-85
2022/07/01 10:05:53;;;;;;;26.23;19.77;;;;;;;35.12;31.34;101093.63;5024552;28;20033;-86
2022/07/01 10:08:25;;;;;;;30.60;19.98;;;;;;;35.22;30.55;101109.22;5014898;28;20060;-87
2022/07/01 10:10:56;;;;;;;36.55;19.73;;;;;;;35.04;30.76;101105.50;5037750;28;20098;-88
2022/07/01 10:13:23;;;;;;;24.48;19.48;;;;;;;35.11;31.27;101091.16;5051024;28;20028;-89
2022/07/01 10:15:49;;;;;;;28.42;18.60;;;;;;;35.35;30.95;101100.97;5029041;28;20041;-88
2022/07/01 10:18:22;;;;;;;29.75;18.23;;;;;;;35.48;30.41;101098.13;5033058;28;20086;-84
2022/07/01 10:20:48;;;;;;;23.75;18.75;;;;;;;35.54;30.16;101099.91;5031121;28;20033;-84
2022/07/01 10:23:13;;;;;;;28.20;19.38;;;;;;;35.54;30.02;101107.16;5049523;28;20032;-85
2022/07/01 10:25:43;;;;;;;33.05;19.67;;;;;;;35.64;29.68;101100.19;5032209;28;20032;-87
2022/07/01 10:28:27;;;;;;;29.70;18.25;;;;;;;35.97;28.24;101101.59;5049606;28;20021;-90
2022/07/01 10:31:01;;;;;;;26.63;17.70;;;;;;;36.11;27.59;101108.41;5034232;28;20060;-89
2022/07/01 10:33:33;;;;;;;25.17;17.35;;;;;;;36.04;27.82;101091.53;5044546;28;20443;-90
2022/07/01 10:36:08;;;;;;;;;;;;;;;36.14;28.16;101091.78;5031515;28;20975;-95
2022/07/01 10:38:34;;;;;;;20.42;15.98;;;;;;;36.42;28.79;101083.03;5021355;28;20313;-85
2022/07/01 10:41:09;;;;;;;30.10;16.83;;;;;;;36.65;28.62;101071.41;5033803;28;20494;-89
2022/07/01 10:43:36;;;;;;;23.75;16.42;;;;;;;36.68;27.18;101080.91;5049679;28;20040;-84
2022/07/01 10:46:01;;;;;;;21.48;16.48;;;;;;;36.67;28.25;101063.91;5049744;28;20029;-84
2022/07/01 10:48:30;;;;;;;19.10;15.60;;;;;;;36.81;27.14;101069.06;5049973;28;20029;-84
2022/07/01 10:50:56;;;;;;;20.40;14.52;;;;;;;36.94;25.93;101066.09;5049174;28;20033;-85
2022/07/01 10:53:21;;;;;;;28.38;16.42;;;;;;;37.04;27.81;101039.34;5049542;28;20033;-87
2022/07/01 10:55:51;;;;;;;21.00;16.48;;;;;;;36.95;27.19;101049.69;5032696;28;20029;-88
2022/07/01 10:58:20;;;;;;;27.17;15.77;;;;;;;37.00;26.47;101070.56;5049792;28;20029;-85
2022/07/01 11:00:46;;;;;;;29.73;17.58;;;;;;;37.02;26.38;101068.44;5048184;28;20028;-86
2022/07/01 11:03:19;;;;;;;20.80;14.93;;;;;;;37.24;25.95;101076.69;5013462;28;20033;-87
2022/07/01 11:05:46;;;;;;;23.27;14.68;;;;;;;37.42;24.92;101054.94;5047567;28;20040;-84
2022/07/01 11:08:11;;;;;;;20.00;13.98;;;;;;;37.49;24.34;101049.38;5015774;28;20048;-85
2022/07/01 11:10:38;;;;;;;19.63;13.73;;;;;;;37.64;24.06;101046.94;5048134;28;20029;-86
2022/07/01 11:13:04;;;;;;;21.25;14.45;;;;;;;37.77;24.79;101032.34;5047874;28;20029;-84
2022/07/01 11:15:30;;;;;;;16.33;13.45;;;;;;;37.86;22.92;101044.38;5025363;28;20028;-85
2022/07/01 11:17:56;;;;;;;20.08;13.85;;;;;;;37.74;23.31;101030.91;5027735;28;20033;-86
2022/07/01 11:20:23;;;;;;;15.60;12.98;;;;;;;37.71;22.78;101039.50;5044785;28;20144;-86
2022/07/01 11:22:48;;;;;;;20.00;13.35;;;;;;;37.58;23.01;101010.97;5012191;28;20025;-84
2022/07/01 11:25:14;;;;;;;13.75;11.82;;;;;;;37.77;21.48;101008.88;5030082;28;20044;-85
2022/07/01 11:27:40;;;;;;;23.27;12.43;;;;;;;37.87;21.33;101013.63;5031074;28;20026;-85
2022/07/01 11:30:09;;;;;;;22.73;12.07;;;;;;;37.96;21.22;101011.31;5042760;28;20025;-89
2022/07/01 11:32:56;;;;;;;20.65;11.82;;;;;;;38.03;21.20;101001.13;5049746;28;20052;-86
2022/07/01 11:41:01;;;;;;;19.63;12.30;;;;;;;38.49;20.21;101004.50;5033970;28;20036;-88
2022/07/01 11:43:29;;;;;;;18.52;13.73;;;;;;;38.56;21.14;101003.25;5029748;28;20030;-88
2022/07/01 11:45:54;;;;;;;22.02;13.10;;;;;;;38.67;20.51;100996.13;5017380;28;20395;-89
2022/07/01 11:48:36;;;;;;;16.45;11.60;;;;;;;38.61;18.77;100992.50;5013803;28;20479;-87
2022/07/01 11:51:06;;;;;;;31.05;12.13;;;;;;;38.57;18.73;100990.56;5030449;28;20065;-90
2022/07/01 11:53:31;;;;;;;16.17;12.18;;;;;;;38.39;19.67;100962.78;5013583;28;20414;-89
2022/07/01 11:55:57;;;;;;;16.02;11.95;;;;;;;38.57;19.21;100975.16;5032092;28;20025;-83
2022/07/01 11:58:22;;;;;;;21.80;12.90;;;;;;;38.71;19.50;100975.59;5032858;28;20040;-83
2022/07/01 12:00:48;;;;;;;14.10;11.98;;;;;;;38.79;18.51;100990.56;5033307;28;20470;-87
2022/07/01 12:03:28;;;;;;;19.02;11.52;;;;;;;38.78;17.69;100976.22;5040590;28;20036;-89
2022/07/01 12:05:54;;;;;;;15.00;10.93;;;;;;;38.69;16.59;100953.41;5044490;28;20486;-85
2022/07/01 12:08:19;;;;;;;15.35;10.43;;;;;;;38.84;16.70;100979.78;5032731;28;20032;-88
2022/07/01 12:10:45;;;;;;;16.80;11.13;;;;;;;38.75;17.18;100975.94;5020283;28;20044;-86
2022/07/01 12:13:38;;;;;;;14.38;12.13;;;;;;;38.93;17.12;100979.09;5047934;28;20033;-89
2022/07/01 12:16:07;;;;;;;23.90;14.45;;;;;;;38.96;18.25;100969.66;5046007;28;20111;-85
2022/07/01 12:18:33;;;;;;;19.75;15.35;;;;;;;39.08;19.74;100975.75;5028404;28;20044;-89
2022/07/01 12:20:58;;;;;;;21.40;15.65;;;;;;;39.01;19.67;100943.47;5045981;28;20025;-85
2022/07/01 12:23:24;;;;;;;20.80;15.18;;;;;;;39.08;20.46;100964.91;5048721;28;20402;-87
2022/07/01 12:25:50;;;;;;;26.15;15.68;;;;;;;39.08;20.50;100953.28;5047476;28;20033;-87
2022/07/01 12:28:32;;;;;;;19.88;16.35;;;;;;;39.09;20.65;100963.03;5028481;28;20056;-86
2022/07/01 12:31:06;;;;;;;21.27;15.90;;;;;;;39.14;20.13;100955.81;5046204;28;20455;-86
2022/07/01 12:33:34;;;;;;;19.00;15.68;;;;;;;39.19;19.87;100955.03;5048599;28;20025;-87
2022/07/01 12:36:04;;;;;;;21.60;15.35;;;;;;;39.24;19.38;100958.59;5050218;28;20033;-87
2022/07/01 12:38:29;;;;;;;26.20;15.95;;;;;;;39.16;19.17;100948.25;5032472;28;20024;-86
2022/07/01 12:40:55;;;;;;;23.13;16.90;;;;;;;39.07;20.02;100948.94;5049284;28;20087;-89
2022/07/01 12:43:34;;;;;;;27.67;16.55;;;;;;;38.84;21.08;100941.94;5049345;28;20521;-85
2022/07/01 12:45:59;;;;;;;25.20;16.52;;;;;;;39.00;21.21;100952.66;5031630;28;20048;-89
2022/07/01 12:48:25;;;;;;;23.70;16.65;;;;;;;38.96;21.56;100946.13;5032428;28;20064;-90
2022/07/01 12:50:56;;;;;;;23.00;17.23;;;;;;;38.71;22.13;100937.75;5049319;28;20037;-89
2022/07/01 12:53:22;;;;;;;19.95;16.38;;;;;;;38.62;22.65;100934.66;5018078;28;20029;-90
2022/07/01 12:55:53;;;;;;;24.15;16.52;;;;;;;38.52;22.06;100944.53;5027368;28;20029;-87
2022/07/01 12:58:21;;;;;;;22.08;17.60;;;;;;;38.47;22.92;100929.09;5036295;28;20037;-89
2022/07/01 13:00:48;;;;;;;27.30;16.40;;;;;;;38.48;21.93;100913.69;5035617;28;20486;-84
2022/07/01 13:03:13;;;;;;;24.25;16.83;;;;;;;38.70;22.45;100938.81;5052045;28;20029;-86
2022/07/01 13:05:39;;;;;;;22.30;16.90;;;;;;;38.73;22.12;100924.78;5036031;28;20074;-85
2022/07/01 13:08:05;;;;;;;27.98;16.50;;;;;;;38.66;22.11;100914.16;5025689;28;20033;-84
2022/07/01 13:10:31;;;;;;;23.65;16.15;;;;;;;38.58;21.90;100927.31;5015404;28;20037;-85
2022/07/01 13:12:56;;;;;;;21.52;16.05;;;;;;;38.41;21.81;100925.50;4997972;28;20037;-86
2022/07/01 13:15:22;;;;;;;24.17;17.40;;;;;;;38.17;21.56;100918.69;5030498;28;20052;-86
2022/07/01 13:17:48;;;;;;;21.17;16.48;;;;;;;38.06;21.83;100914.22;5030997;28;20064;-86
2022/07/01 13:20:13;;;;;;;22.40;16.17;;;;;;;37.80;22.17;100911.16;5030063;28;20029;-85
2022/07/01 13:22:39;;;;;;;23.73;16.83;;;;;;;37.69;22.99;100906.66;5013862;28;20033;-84
2022/07/01 13:25:05;;;;;;;21.10;15.90;;;;;;;37.65;22.39;100929.00;5010650;28;20063;-84
2022/07/01 13:27:31;;;;;;;23.58;16.73;;;;;;;37.53;22.54;100912.88;5035220;28;20514;-88
2022/07/01 13:29:57;;;;;;;24.25;16.08;;;;;;;37.52;23.15;100897.75;5051862;28;20036;-85
2022/07/01 13:32:23;;;;;;;23.85;16.50;;;;;;;37.43;22.44;100899.25;5034903;28;20065;-85
2022/07/01 13:34:48;;;;;;;18.80;15.82;;;;;;;37.21;22.59;100883.75;5035622;28;20057;-85
2022/07/01 13:37:14;;;;;;;19.13;15.43;;;;;;;37.18;22.22;100891.53;5052181;28;20379;-89
2022/07/01 13:39:39;;;;;;;19.83;15.05;;;;;;;36.94;21.26;100880.88;5035513;28;20156;-87
2022/07/01 13:42:05;;;;;;;17.83;15.82;;;;;;;36.97;21.96;100895.75;5034528;28;20493;-89
2022/07/01 13:44:31;;;;;;;22.30;15.52;;;;;;;36.94;21.96;100886.28;5030984;28;20167;-89
2022/07/01 13:46:56;;;;;;;24.48;16.38;;;;;;;36.94;22.17;100877.38;5052969;28;20033;-88
2022/07/01 13:49:22;;;;;;;17.70;15.35;;;;;;;36.70;22.50;100890.13;5051132;28;20033;-91
